Echo, Oregon
Current Conditions -  °F | °C
As of 11:53 AM on Friday 26 Dec 2014 (Local Time) from KHRI Reporting Station
Clear Clear  
Wind Chill: 41°   Ceiling: Unl
Heat Index: 41°   Visibility: 10mi
Dew Point: 33°   Wind: 0mph
Humidity: 73%   Direction: NA
Pressure: 30.34"   Gusts: NA
Location:  45.74°N, 119.2°W
Report Text: KHRI 261953Z AUTO 00000KT 10SM CLR 05/01 A3034 RMK AO2 SLP277 T00500006
Loading
Personal Weather Stations






























Interactive Weather Map New forecast layout! Learn more

10-Day Weather Forecast

Advertisements
Track Severe Weather on mobile